Chuluota, Florida
Current Conditions -  °F | °C
As of 5:53 PM on Friday 19 Dec 2014 (Local Time) from KSFB Reporting Station
Clear Clear  
Wind Chill: 63°   Ceiling: Unl
Heat Index: 63°   Visibility: 10mi
Dew Point: 47°   Wind: 0mph
Humidity: 56%   Direction: NA
Pressure: 30.08"   Gusts: NA
Location:  28.647°N, 81.0852°W
Report Text: KSFB 192253Z 00000KT 10SM CLR 17/08 A3008 RMK AO2 SLP187 T01720083
Loading
Personal Weather Stations






























Interactive Weather Map New forecast layout! Learn more

10-Day Weather Forecast

Advertisements
Track Severe Weather on mobile